sensor_id;sensor_type;location;lat;lon;timestamp;temperature;humidity
62007;DHT22;47963;53.008;6.754;2022-08-30T00:00:36;17.20;99.90
62007;DHT22;47963;53.008;6.754;2022-08-30T00:03:21;17.20;99.90
62007;DHT22;47963;53.008;6.754;2022-08-30T00:05:47;17.20;99.90
62007;DHT22;47963;53.008;6.754;2022-08-30T00:08:12;17.20;99.90
62007;DHT22;47963;53.008;6.754;2022-08-30T00:10:39;17.20;99.90
62007;DHT22;47963;53.008;6.754;2022-08-30T00:13:06;17.20;99.90
62007;DHT22;47963;53.008;6.754;2022-08-30T00:15:32;17.20;99.90
62007;DHT22;47963;53.008;6.754;2022-08-30T00:17:58;17.10;99.90
62007;DHT22;47963;53.008;6.754;2022-08-30T00:20:27;17.10;99.90
62007;DHT22;47963;53.008;6.754;2022-08-30T00:22:53;17.10;99.90
62007;DHT22;47963;53.008;6.754;2022-08-30T00:25:19;17.00;99.90
62007;DHT22;47963;53.008;6.754;2022-08-30T00:27:45;16.90;99.90
62007;DHT22;47963;53.008;6.754;2022-08-30T00:30:13;16.90;99.90
62007;DHT22;47963;53.008;6.754;2022-08-30T00:32:39;16.90;99.90
62007;DHT22;47963;53.008;6.754;2022-08-30T00:35:06;16.90;99.90
62007;DHT22;47963;53.008;6.754;2022-08-30T00:37:32;16.90;99.90
62007;DHT22;47963;53.008;6.754;2022-08-30T00:39:58;16.90;99.90
62007;DHT22;47963;53.008;6.754;2022-08-30T00:42:24;16.90;99.90
62007;DHT22;47963;53.008;6.754;2022-08-30T00:44:50;16.90;99.90
62007;DHT22;47963;53.008;6.754;2022-08-30T00:47:16;16.90;99.90
62007;DHT22;47963;53.008;6.754;2022-08-30T00:49:45;17.00;99.90
62007;DHT22;47963;53.008;6.754;2022-08-30T00:52:13;16.90;99.90
62007;DHT22;47963;53.008;6.754;2022-08-30T00:54:41;16.90;99.90
62007;DHT22;47963;53.008;6.754;2022-08-30T00:57:09;16.90;99.90
62007;DHT22;47963;53.008;6.754;2022-08-30T00:59:35;16.90;99.90
62007;DHT22;47963;53.008;6.754;2022-08-30T01:02:02;16.90;99.90
62007;DHT22;47963;53.008;6.754;2022-08-30T01:04:28;16.80;99.90
62007;DHT22;47963;53.008;6.754;2022-08-30T01:06:55;16.80;99.90
62007;DHT22;47963;53.008;6.754;2022-08-30T01:09:23;16.80;99.90
62007;DHT22;47963;53.008;6.754;2022-08-30T01:11:48;16.80;99.90
62007;DHT22;47963;53.008;6.754;2022-08-30T01:14:15;16.80;99.90
62007;DHT22;47963;53.008;6.754;2022-08-30T01:16:42;16.80;99.90
62007;DHT22;47963;53.008;6.754;2022-08-30T01:19:40;16.80;99.90
62007;DHT22;47963;53.008;6.754;2022-08-30T01:22:28;16.80;99.90
62007;DHT22;47963;53.008;6.754;2022-08-30T01:24:57;16.70;99.90
62007;DHT22;47963;53.008;6.754;2022-08-30T01:27:24;16.70;99.90
62007;DHT22;47963;53.008;6.754;2022-08-30T01:29:50;16.70;99.90
62007;DHT22;47963;53.008;6.754;2022-08-30T01:32:18;16.70;99.90
62007;DHT22;47963;53.008;6.754;2022-08-30T01:34:45;16.70;99.90
62007;DHT22;47963;53.008;6.754;2022-08-30T01:37:27;16.60;99.90
62007;DHT22;47963;53.008;6.754;2022-08-30T01:39:54;16.60;99.90
62007;DHT22;47963;53.008;6.754;2022-08-30T01:42:20;16.50;99.90
62007;DHT22;47963;53.008;6.754;2022-08-30T01:44:49;16.60;99.90
62007;DHT22;47963;53.008;6.754;2022-08-30T01:47:15;16.60;99.90
62007;DHT22;47963;53.008;6.754;2022-08-30T01:49:44;16.50;99.90
62007;DHT22;47963;53.008;6.754;2022-08-30T01:52:10;16.50;99.90
62007;DHT22;47963;53.008;6.754;2022-08-30T01:54:37;16.50;99.90
62007;DHT22;47963;53.008;6.754;2022-08-30T01:57:03;16.40;99.90
62007;DHT22;47963;53.008;6.754;2022-08-30T01:59:29;16.40;99.90
62007;DHT22;47963;53.008;6.754;2022-08-30T02:01:55;16.40;99.90
62007;DHT22;47963;53.008;6.754;2022-08-30T02:04:21;16.40;99.90
62007;DHT22;47963;53.008;6.754;2022-08-30T02:06:47;16.40;99.90
62007;DHT22;47963;53.008;6.754;2022-08-30T02:09:13;16.40;99.90
62007;DHT22;47963;53.008;6.754;2022-08-30T02:11:39;16.30;99.90
62007;DHT22;47963;53.008;6.754;2022-08-30T02:14:05;16.30;99.90
62007;DHT22;47963;53.008;6.754;2022-08-30T02:16:31;16.30;99.90
62007;DHT22;47963;53.008;6.754;2022-08-30T02:18:58;16.30;99.90
62007;DHT22;47963;53.008;6.754;2022-08-30T02:21:24;16.30;99.90
62007;DHT22;47963;53.008;6.754;2022-08-30T02:23:52;16.30;99.90
62007;DHT22;47963;53.008;6.754;2022-08-30T02:26:18;16.30;99.90
62007;DHT22;47963;53.008;6.754;2022-08-30T02:28:44;16.20;99.90
62007;DHT22;47963;53.008;6.754;2022-08-30T02:31:10;16.20;99.90
62007;DHT22;47963;53.008;6.754;2022-08-30T02:33:36;16.20;99.90
62007;DHT22;47963;53.008;6.754;2022-08-30T02:36:06;16.20;99.90
62007;DHT22;47963;53.008;6.754;2022-08-30T02:38:32;16.20;99.90
62007;DHT22;47963;53.008;6.754;2022-08-30T02:40:58;16.10;99.90
62007;DHT22;47963;53.008;6.754;2022-08-30T02:43:24;16.10;99.90
62007;DHT22;47963;53.008;6.754;2022-08-30T02:45:49;16.10;99.90
62007;DHT22;47963;53.008;6.754;2022-08-30T02:48:15;16.10;99.90
62007;DHT22;47963;53.008;6.754;2022-08-30T02:50:43;16.00;99.90
62007;DHT22;47963;53.008;6.754;2022-08-30T02:53:10;16.00;99.90
62007;DHT22;47963;53.008;6.754;2022-08-30T02:55:35;16.00;99.90
62007;DHT22;47963;53.008;6.754;2022-08-30T02:58:01;16.00;99.90
62007;DHT22;47963;53.008;6.754;2022-08-30T03:00:27;15.90;99.90
62007;DHT22;47963;53.008;6.754;2022-08-30T03:02:53;15.90;99.90
62007;DHT22;47963;53.008;6.754;2022-08-30T03:05:19;15.90;99.90
62007;DHT22;47963;53.008;6.754;2022-08-30T03:07:45;15.90;99.90
62007;DHT22;47963;53.008;6.754;2022-08-30T03:10:13;15.80;99.90
62007;DHT22;47963;53.008;6.754;2022-08-30T03:12:40;15.80;99.90
62007;DHT22;47963;53.008;6.754;2022-08-30T03:15:07;15.70;99.90
62007;DHT22;47963;53.008;6.754;2022-08-30T03:17:33;15.70;99.90
62007;DHT22;47963;53.008;6.754;2022-08-30T03:19:59;15.70;99.90
62007;DHT22;47963;53.008;6.754;2022-08-30T03:22:27;15.60;99.90
62007;DHT22;47963;53.008;6.754;2022-08-30T03:24:53;15.60;99.90
62007;DHT22;47963;53.008;6.754;2022-08-30T03:27:22;15.60;99.90
62007;DHT22;47963;53.008;6.754;2022-08-30T03:29:48;15.60;99.90
62007;DHT22;47963;53.008;6.754;2022-08-30T03:32:14;15.50;99.90
62007;DHT22;47963;53.008;6.754;2022-08-30T03:34:40;15.50;99.90
62007;DHT22;47963;53.008;6.754;2022-08-30T03:37:06;15.50;99.90
62007;DHT22;47963;53.008;6.754;2022-08-30T03:39:31;15.50;99.90
62007;DHT22;47963;53.008;6.754;2022-08-30T03:41:57;15.40;99.90
62007;DHT22;47963;53.008;6.754;2022-08-30T03:44:23;15.40;99.90
62007;DHT22;47963;53.008;6.754;2022-08-30T03:46:49;15.40;99.90
62007;DHT22;47963;53.008;6.754;2022-08-30T03:49:15;15.40;99.90
62007;DHT22;47963;53.008;6.754;2022-08-30T03:51:41;15.30;99.90
62007;DHT22;47963;53.008;6.754;2022-08-30T03:54:07;15.30;99.90
62007;DHT22;47963;53.008;6.754;2022-08-30T03:56:34;15.20;99.90
62007;DHT22;47963;53.008;6.754;2022-08-30T03:59:00;15.20;99.90
62007;DHT22;47963;53.008;6.754;2022-08-30T04:01:25;15.20;99.90
62007;DHT22;47963;53.008;6.754;2022-08-30T04:03:51;15.20;99.90
62007;DHT22;47963;53.008;6.754;2022-08-30T04:06:17;15.20;99.90
62007;DHT22;47963;53.008;6.754;2022-08-30T04:08:42;15.10;99.90
62007;DHT22;47963;53.008;6.754;2022-08-30T04:11:10;15.10;99.90
62007;DHT22;47963;53.008;6.754;2022-08-30T04:13:37;15.10;99.90
62007;DHT22;47963;53.008;6.754;2022-08-30T04:16:03;15.00;99.90
62007;DHT22;47963;53.008;6.754;2022-08-30T04:18:28;15.00;99.90
62007;DHT22;47963;53.008;6.754;2022-08-30T04:20:54;15.00;99.90
62007;DHT22;47963;53.008;6.754;2022-08-30T04:23:20;15.00;99.90
62007;DHT22;47963;53.008;6.754;2022-08-30T04:25:46;14.90;99.90
62007;DHT22;47963;53.008;6.754;2022-08-30T04:28:12;14.90;99.90
62007;DHT22;47963;53.008;6.754;2022-08-30T04:30:40;14.90;99.90
62007;DHT22;47963;53.008;6.754;2022-08-30T04:33:06;14.90;99.90
62007;DHT22;47963;53.008;6.754;2022-08-30T04:35:32;14.80;99.90
62007;DHT22;47963;53.008;6.754;2022-08-30T04:37:58;14.80;99.90
62007;DHT22;47963;53.008;6.754;2022-08-30T04:40:24;14.80;99.90
62007;DHT22;47963;53.008;6.754;2022-08-30T04:42:50;14.80;99.90
62007;DHT22;47963;53.008;6.754;2022-08-30T04:45:20;14.70;99.90
62007;DHT22;47963;53.008;6.754;2022-08-30T04:47:46;14.70;99.90
62007;DHT22;47963;53.008;6.754;2022-08-30T04:50:14;14.70;99.90
62007;DHT22;47963;53.008;6.754;2022-08-30T04:52:40;14.70;99.90
62007;DHT22;47963;53.008;6.754;2022-08-30T04:55:06;14.60;99.90
62007;DHT22;47963;53.008;6.754;2022-08-30T04:57:33;14.60;99.90
62007;DHT22;47963;53.008;6.754;2022-08-30T04:59:59;14.60;99.90
62007;DHT22;47963;53.008;6.754;2022-08-30T05:02:25;14.60;99.90
62007;DHT22;47963;53.008;6.754;2022-08-30T05:04:52;14.50;99.90
62007;DHT22;47963;53.008;6.754;2022-08-30T05:07:36;14.50;99.90
62007;DHT22;47963;53.008;6.754;2022-08-30T05:10:03;14.50;99.90
62007;DHT22;47963;53.008;6.754;2022-08-30T05:12:29;14.50;99.90
62007;DHT22;47963;53.008;6.754;2022-08-30T05:14:54;14.50;99.90
62007;DHT22;47963;53.008;6.754;2022-08-30T05:17:23;14.50;99.90
62007;DHT22;47963;53.008;6.754;2022-08-30T05:19:48;14.40;99.90
62007;DHT22;47963;53.008;6.754;2022-08-30T05:22:14;14.50;99.90
62007;DHT22;47963;53.008;6.754;2022-08-30T05:24:40;14.40;99.90
62007;DHT22;47963;53.008;6.754;2022-08-30T05:27:06;14.50;99.90
62007;DHT22;47963;53.008;6.754;2022-08-30T05:29:32;14.50;99.90
62007;DHT22;47963;53.008;6.754;2022-08-30T05:31:58;14.50;99.90
62007;DHT22;47963;53.008;6.754;2022-08-30T05:34:25;14.60;99.90
62007;DHT22;47963;53.008;6.754;2022-08-30T05:36:51;14.60;99.90
62007;DHT22;47963;53.008;6.754;2022-08-30T05:39:17;14.60;99.90
62007;DHT22;47963;53.008;6.754;2022-08-30T05:41:43;14.70;99.90
62007;DHT22;47963;53.008;6.754;2022-08-30T05:44:09;14.70;99.90
62007;DHT22;47963;53.008;6.754;2022-08-30T05:46:35;14.70;99.90
62007;DHT22;47963;53.008;6.754;2022-08-30T05:49:03;14.80;99.90
62007;DHT22;47963;53.008;6.754;2022-08-30T05:51:32;14.80;99.90
62007;DHT22;47963;53.008;6.754;2022-08-30T05:53:58;14.80;99.90
62007;DHT22;47963;53.008;6.754;2022-08-30T05:56:33;14.80;99.90
62007;DHT22;47963;53.008;6.754;2022-08-30T05:59:00;14.80;99.90
62007;DHT22;47963;53.008;6.754;2022-08-30T06:01:34;14.90;99.90
62007;DHT22;47963;53.008;6.754;2022-08-30T06:04:02;14.90;99.90
62007;DHT22;47963;53.008;6.754;2022-08-30T06:06:30;15.00;99.90
62007;DHT22;47963;53.008;6.754;2022-08-30T06:08:56;15.00;99.90
62007;DHT22;47963;53.008;6.754;2022-08-30T06:11:23;15.00;99.90
62007;DHT22;47963;53.008;6.754;2022-08-30T06:13:50;15.10;99.90
62007;DHT22;47963;53.008;6.754;2022-08-30T06:18:43;15.10;99.90
62007;DHT22;47963;53.008;6.754;2022-08-30T06:21:18;15.20;99.90
62007;DHT22;47963;53.008;6.754;2022-08-30T06:23:44;15.30;99.90
62007;DHT22;47963;53.008;6.754;2022-08-30T06:26:11;15.30;99.90
62007;DHT22;47963;53.008;6.754;2022-08-30T06:28:36;15.40;99.90
62007;DHT22;47963;53.008;6.754;2022-08-30T06:31:09;15.40;99.90
62007;DHT22;47963;53.008;6.754;2022-08-30T06:33:36;15.50;99.90
62007;DHT22;47963;53.008;6.754;2022-08-30T06:36:09;15.50;99.90
62007;DHT22;47963;53.008;6.754;2022-08-30T06:38:36;15.60;99.90
62007;DHT22;47963;53.008;6.754;2022-08-30T06:41:10;15.60;99.90
62007;DHT22;47963;53.008;6.754;2022-08-30T06:43:36;15.70;99.90
62007;DHT22;47963;53.008;6.754;2022-08-30T06:46:08;15.70;99.90
62007;DHT22;47963;53.008;6.754;2022-08-30T06:48:34;15.80;99.90
62007;DHT22;47963;53.008;6.754;2022-08-30T06:51:00;15.90;99.90
62007;DHT22;47963;53.008;6.754;2022-08-30T06:53:26;16.00;99.90
62007;DHT22;47963;53.008;6.754;2022-08-30T06:55:59;16.10;99.90
62007;DHT22;47963;53.008;6.754;2022-08-30T06:58:26;16.10;99.90
62007;DHT22;47963;53.008;6.754;2022-08-30T07:00:52;16.20;99.90
62007;DHT22;47963;53.008;6.754;2022-08-30T07:03:18;16.30;99.90
62007;DHT22;47963;53.008;6.754;2022-08-30T07:05:43;16.40;99.90
62007;DHT22;47963;53.008;6.754;2022-08-30T07:08:09;16.40;99.90
62007;DHT22;47963;53.008;6.754;2022-08-30T07:10:39;16.50;99.90
62007;DHT22;47963;53.008;6.754;2022-08-30T07:13:06;16.50;99.90
62007;DHT22;47963;53.008;6.754;2022-08-30T07:15:31;16.60;99.90
62007;DHT22;47963;53.008;6.754;2022-08-30T07:17:57;16.70;99.90
62007;DHT22;47963;53.008;6.754;2022-08-30T07:20:41;16.80;99.90
62007;DHT22;47963;53.008;6.754;2022-08-30T07:23:08;16.80;99.90
62007;DHT22;47963;53.008;6.754;2022-08-30T07:25:36;16.90;99.90
62007;DHT22;47963;53.008;6.754;2022-08-30T07:28:02;17.00;99.90
62007;DHT22;47963;53.008;6.754;2022-08-30T07:30:28;17.00;99.90
62007;DHT22;47963;53.008;6.754;2022-08-30T07:32:54;17.10;99.90
62007;DHT22;47963;53.008;6.754;2022-08-30T07:35:19;17.20;99.90
62007;DHT22;47963;53.008;6.754;2022-08-30T07:37:45;17.20;99.90
62007;DHT22;47963;53.008;6.754;2022-08-30T07:40:11;17.30;99.90
62007;DHT22;47963;53.008;6.754;2022-08-30T07:42:36;17.30;99.90
62007;DHT22;47963;53.008;6.754;2022-08-30T07:45:03;17.40;99.90
62007;DHT22;47963;53.008;6.754;2022-08-30T07:47:29;17.40;99.90
62007;DHT22;47963;53.008;6.754;2022-08-30T07:49:58;17.50;99.90
62007;DHT22;47963;53.008;6.754;2022-08-30T07:52:25;17.50;99.90
62007;DHT22;47963;53.008;6.754;2022-08-30T07:54:51;17.60;99.90
62007;DHT22;47963;53.008;6.754;2022-08-30T07:57:18;17.70;99.90
62007;DHT22;47963;53.008;6.754;2022-08-30T07:59:44;17.70;99.90
62007;DHT22;47963;53.008;6.754;2022-08-30T08:02:09;17.70;99.90
62007;DHT22;47963;53.008;6.754;2022-08-30T08:04:35;17.70;99.90
62007;DHT22;47963;53.008;6.754;2022-08-30T08:07:00;17.80;99.90
62007;DHT22;47963;53.008;6.754;2022-08-30T08:09:26;18.00;99.90
62007;DHT22;47963;53.008;6.754;2022-08-30T08:11:54;18.00;99.90
62007;DHT22;47963;53.008;6.754;2022-08-30T08:14:19;18.10;99.90
62007;DHT22;47963;53.008;6.754;2022-08-30T08:16:48;18.10;99.90
62007;DHT22;47963;53.008;6.754;2022-08-30T08:19:14;18.20;99.90
62007;DHT22;47963;53.008;6.754;2022-08-30T08:21:40;18.20;99.90
62007;DHT22;47963;53.008;6.754;2022-08-30T08:24:06;18.20;99.90
62007;DHT22;47963;53.008;6.754;2022-08-30T08:26:36;18.20;99.90
62007;DHT22;47963;53.008;6.754;2022-08-30T08:29:04;18.30;99.90
62007;DHT22;47963;53.008;6.754;2022-08-30T08:31:30;18.40;99.90
62007;DHT22;47963;53.008;6.754;2022-08-30T08:33:56;18.50;99.90
62007;DHT22;47963;53.008;6.754;2022-08-30T08:36:25;18.50;99.90
62007;DHT22;47963;53.008;6.754;2022-08-30T08:38:51;18.50;99.90
62007;DHT22;47963;53.008;6.754;2022-08-30T08:44:25;18.60;99.90
62007;DHT22;47963;53.008;6.754;2022-08-30T08:47:16;18.60;99.90
62007;DHT22;47963;53.008;6.754;2022-08-30T08:49:45;18.70;99.90
62007;DHT22;47963;53.008;6.754;2022-08-30T08:52:23;18.80;99.90
62007;DHT22;47963;53.008;6.754;2022-08-30T08:55:12;19.00;99.90
62007;DHT22;47963;53.008;6.754;2022-08-30T08:57:39;19.00;99.90
62007;DHT22;47963;53.008;6.754;2022-08-30T09:00:08;19.00;99.90
62007;DHT22;47963;53.008;6.754;2022-08-30T09:03:00;19.10;99.90
62007;DHT22;47963;53.008;6.754;2022-08-30T09:05:28;19.30;99.90
62007;DHT22;47963;53.008;6.754;2022-08-30T09:08:02;19.20;99.90
62007;DHT22;47963;53.008;6.754;2022-08-30T09:10:31;19.20;99.90
62007;DHT22;47963;53.008;6.754;2022-08-30T09:12:57;19.30;99.90
62007;DHT22;47963;53.008;6.754;2022-08-30T09:15:27;19.20;99.90
62007;DHT22;47963;53.008;6.754;2022-08-30T09:17:56;19.30;99.90
62007;DHT22;47963;53.008;6.754;2022-08-30T09:20:33;19.60;99.90
62007;DHT22;47963;53.008;6.754;2022-08-30T09:23:24;19.60;99.90
62007;DHT22;47963;53.008;6.754;2022-08-30T09:25:58;19.60;99.90
62007;DHT22;47963;53.008;6.754;2022-08-30T09:28:30;19.50;99.90
62007;DHT22;47963;53.008;6.754;2022-08-30T09:31:07;19.70;99.90
62007;DHT22;47963;53.008;6.754;2022-08-30T09:33:33;19.80;99.90
62007;DHT22;47963;53.008;6.754;2022-08-30T09:36:15;19.80;99.90
62007;DHT22;47963;53.008;6.754;2022-08-30T09:38:43;19.90;99.90
62007;DHT22;47963;53.008;6.754;2022-08-30T09:41:39;19.80;99.90
62007;DHT22;47963;53.008;6.754;2022-08-30T09:44:20;20.00;99.90
62007;DHT22;47963;53.008;6.754;2022-08-30T09:46:54;20.10;99.90
62007;DHT22;47963;53.008;6.754;2022-08-30T09:49:37;20.10;99.90
62007;DHT22;47963;53.008;6.754;2022-08-30T09:52:26;20.20;99.90
62007;DHT22;47963;53.008;6.754;2022-08-30T10:00:39;20.10;99.90
62007;DHT22;47963;53.008;6.754;2022-08-30T10:14:33;20.60;99.90
62007;DHT22;47963;53.008;6.754;2022-08-30T10:20:00;20.60;99.90
62007;DHT22;47963;53.008;6.754;2022-08-30T10:22:33;20.50;99.90
62007;DHT22;47963;53.008;6.754;2022-08-30T10:25:09;20.60;99.90
62007;DHT22;47963;53.008;6.754;2022-08-30T10:27:45;20.70;99.90
62007;DHT22;47963;53.008;6.754;2022-08-30T10:30:14;20.70;99.90
62007;DHT22;47963;53.008;6.754;2022-08-30T10:32:50;20.70;99.90
62007;DHT22;47963;53.008;6.754;2022-08-30T10:35:22;20.60;99.90
62007;DHT22;47963;53.008;6.754;2022-08-30T10:37:56;20.60;99.90
62007;DHT22;47963;53.008;6.754;2022-08-30T10:40:28;20.90;99.90
62007;DHT22;47963;53.008;6.754;2022-08-30T10:43:21;21.00;99.90
62007;DHT22;47963;53.008;6.754;2022-08-30T10:45:49;21.10;99.90
62007;DHT22;47963;53.008;6.754;2022-08-30T10:48:24;21.10;99.90
62007;DHT22;47963;53.008;6.754;2022-08-30T10:50:53;21.40;99.90
62007;DHT22;47963;53.008;6.754;2022-08-30T10:53:31;21.40;99.90
62007;DHT22;47963;53.008;6.754;2022-08-30T10:56:06;21.50;99.90
62007;DHT22;47963;53.008;6.754;2022-08-30T10:58:33;21.60;99.90
62007;DHT22;47963;53.008;6.754;2022-08-30T11:14:51;21.70;99.90
62007;DHT22;47963;53.008;6.754;2022-08-30T11:19:52;21.80;99.90
62007;DHT22;47963;53.008;6.754;2022-08-30T11:22:38;22.00;99.90
62007;DHT22;47963;53.008;6.754;2022-08-30T11:25:15;21.70;99.90
62007;DHT22;47963;53.008;6.754;2022-08-30T11:28:01;21.60;99.90
62007;DHT22;47963;53.008;6.754;2022-08-30T11:32:59;21.30;99.90
62007;DHT22;47963;53.008;6.754;2022-08-30T11:46:20;21.60;99.90
62007;DHT22;47963;53.008;6.754;2022-08-30T11:57:47;21.80;99.90
62007;DHT22;47963;53.008;6.754;2022-08-30T12:00:28;21.90;99.90
62007;DHT22;47963;53.008;6.754;2022-08-30T12:03:00;22.20;99.90
62007;DHT22;47963;53.008;6.754;2022-08-30T12:08:09;22.70;99.90
62007;DHT22;47963;53.008;6.754;2022-08-30T12:10:40;22.60;99.90
62007;DHT22;47963;53.008;6.754;2022-08-30T12:13:06;22.40;99.90
62007;DHT22;47963;53.008;6.754;2022-08-30T12:15:54;22.20;99.90
62007;DHT22;47963;53.008;6.754;2022-08-30T12:18:29;22.50;99.90
62007;DHT22;47963;53.008;6.754;2022-08-30T12:20:58;22.40;99.90
62007;DHT22;47963;53.008;6.754;2022-08-30T12:23:32;22.50;99.90
62007;DHT22;47963;53.008;6.754;2022-08-30T12:26:14;22.60;99.90
62007;DHT22;47963;53.008;6.754;2022-08-30T12:28:41;22.70;99.90
62007;DHT22;47963;53.008;6.754;2022-08-30T12:31:23;22.90;99.90
62007;DHT22;47963;53.008;6.754;2022-08-30T12:33:57;22.90;99.90
62007;DHT22;47963;53.008;6.754;2022-08-30T12:36:39;22.80;99.90
62007;DHT22;47963;53.008;6.754;2022-08-30T12:39:25;22.40;99.90
62007;DHT22;47963;53.008;6.754;2022-08-30T12:41:51;22.60;99.90
62007;DHT22;47963;53.008;6.754;2022-08-30T12:44:24;22.80;99.90
62007;DHT22;47963;53.008;6.754;2022-08-30T12:46:58;22.90;99.90
62007;DHT22;47963;53.008;6.754;2022-08-30T12:49:29;23.20;99.90
62007;DHT22;47963;53.008;6.754;2022-08-30T12:52:14;23.30;99.90
62007;DHT22;47963;53.008;6.754;2022-08-30T12:54:41;23.50;99.90
62007;DHT22;47963;53.008;6.754;2022-08-30T12:57:06;23.60;99.90
62007;DHT22;47963;53.008;6.754;2022-08-30T13:02:43;23.60;99.90
62007;DHT22;47963;53.008;6.754;2022-08-30T13:10:32;22.80;99.90
62007;DHT22;47963;53.008;6.754;2022-08-30T13:13:03;22.60;99.90
62007;DHT22;47963;53.008;6.754;2022-08-30T13:15:34;22.50;99.90
62007;DHT22;47963;53.008;6.754;2022-08-30T13:18:18;22.40;99.90
62007;DHT22;47963;53.008;6.754;2022-08-30T13:20:45;22.50;99.90
62007;DHT22;47963;53.008;6.754;2022-08-30T13:23:21;22.60;99.90
62007;DHT22;47963;53.008;6.754;2022-08-30T13:25:47;23.00;99.90
62007;DHT22;47963;53.008;6.754;2022-08-30T13:28:13;23.30;99.90
62007;DHT22;47963;53.008;6.754;2022-08-30T13:30:38;23.40;99.90
62007;DHT22;47963;53.008;6.754;2022-08-30T13:33:04;23.50;99.90
62007;DHT22;47963;53.008;6.754;2022-08-30T13:35:31;23.60;99.90
62007;DHT22;47963;53.008;6.754;2022-08-30T13:37:59;23.80;99.90
62007;DHT22;47963;53.008;6.754;2022-08-30T13:40:25;23.90;99.90
62007;DHT22;47963;53.008;6.754;2022-08-30T13:42:50;24.00;99.90
62007;DHT22;47963;53.008;6.754;2022-08-30T13:45:18;24.10;99.90
62007;DHT22;47963;53.008;6.754;2022-08-30T13:47:44;23.90;99.90
62007;DHT22;47963;53.008;6.754;2022-08-30T13:50:11;23.90;99.90
62007;DHT22;47963;53.008;6.754;2022-08-30T13:52:37;24.00;99.90
62007;DHT22;47963;53.008;6.754;2022-08-30T13:55:03;24.10;99.90
62007;DHT22;47963;53.008;6.754;2022-08-30T13:57:29;24.30;99.90
62007;DHT22;47963;53.008;6.754;2022-08-30T13:59:55;24.60;99.90
62007;DHT22;47963;53.008;6.754;2022-08-30T14:02:21;24.80;99.90
62007;DHT22;47963;53.008;6.754;2022-08-30T14:04:46;24.80;99.90
62007;DHT22;47963;53.008;6.754;2022-08-30T14:07:12;24.70;99.90
62007;DHT22;47963;53.008;6.754;2022-08-30T14:09:38;24.40;99.90
62007;DHT22;47963;53.008;6.754;2022-08-30T14:12:04;24.10;99.90
62007;DHT22;47963;53.008;6.754;2022-08-30T14:14:30;23.80;99.90
62007;DHT22;47963;53.008;6.754;2022-08-30T14:16:55;24.20;99.90
62007;DHT22;47963;53.008;6.754;2022-08-30T14:19:21;24.50;99.90
62007;DHT22;47963;53.008;6.754;2022-08-30T14:21:47;24.70;99.90
62007;DHT22;47963;53.008;6.754;2022-08-30T14:24:12;24.30;99.90
62007;DHT22;47963;53.008;6.754;2022-08-30T14:26:41;24.00;99.90
62007;DHT22;47963;53.008;6.754;2022-08-30T14:29:11;23.70;99.90
62007;DHT22;47963;53.008;6.754;2022-08-30T14:31:38;23.30;99.90
62007;DHT22;47963;53.008;6.754;2022-08-30T14:34:05;23.40;99.90
62007;DHT22;47963;53.008;6.754;2022-08-30T14:36:33;23.80;99.90
62007;DHT22;47963;53.008;6.754;2022-08-30T14:38:59;24.10;99.90
62007;DHT22;47963;53.008;6.754;2022-08-30T14:41:24;24.50;99.90
62007;DHT22;47963;53.008;6.754;2022-08-30T14:43:50;25.00;99.90
62007;DHT22;47963;53.008;6.754;2022-08-30T14:46:16;25.20;99.90
62007;DHT22;47963;53.008;6.754;2022-08-30T14:48:42;24.50;99.90
62007;DHT22;47963;53.008;6.754;2022-08-30T14:51:15;24.10;99.90
62007;DHT22;47963;53.008;6.754;2022-08-30T14:53:42;23.80;99.90
62007;DHT22;47963;53.008;6.754;2022-08-30T14:56:10;23.60;99.90
62007;DHT22;47963;53.008;6.754;2022-08-30T14:58:37;23.60;99.90
62007;DHT22;47963;53.008;6.754;2022-08-30T15:01:06;24.00;99.90
62007;DHT22;47963;53.008;6.754;2022-08-30T15:03:33;24.30;99.90
62007;DHT22;47963;53.008;6.754;2022-08-30T15:05:59;24.60;99.90
62007;DHT22;47963;53.008;6.754;2022-08-30T15:08:24;24.90;99.90
62007;DHT22;47963;53.008;6.754;2022-08-30T15:10:50;25.40;99.90
62007;DHT22;47963;53.008;6.754;2022-08-30T15:13:16;25.70;99.90
62007;DHT22;47963;53.008;6.754;2022-08-30T15:15:42;25.50;99.90
62007;DHT22;47963;53.008;6.754;2022-08-30T15:18:08;24.90;99.90
62007;DHT22;47963;53.008;6.754;2022-08-30T15:20:33;24.70;99.90
62007;DHT22;47963;53.008;6.754;2022-08-30T15:22:59;24.20;99.90
62007;DHT22;47963;53.008;6.754;2022-08-30T15:25:25;24.40;99.90
62007;DHT22;47963;53.008;6.754;2022-08-30T15:27:51;26.20;99.90
62007;DHT22;47963;53.008;6.754;2022-08-30T15:30:16;25.90;99.90
62007;DHT22;47963;53.008;6.754;2022-08-30T15:32:42;26.30;99.90
62007;DHT22;47963;53.008;6.754;2022-08-30T15:35:08;25.50;99.90
62007;DHT22;47963;53.008;6.754;2022-08-30T15:37:34;25.20;99.90
62007;DHT22;47963;53.008;6.754;2022-08-30T15:40:02;24.90;99.90
62007;DHT22;47963;53.008;6.754;2022-08-30T15:42:28;24.90;99.90
62007;DHT22;47963;53.008;6.754;2022-08-30T15:44:55;24.50;99.90
62007;DHT22;47963;53.008;6.754;2022-08-30T15:47:22;24.10;99.90
62007;DHT22;47963;53.008;6.754;2022-08-30T15:49:59;24.00;99.90
62007;DHT22;47963;53.008;6.754;2022-08-30T15:52:27;23.70;99.90
62007;DHT22;47963;53.008;6.754;2022-08-30T15:54:53;23.50;99.90
62007;DHT22;47963;53.008;6.754;2022-08-30T15:57:19;23.40;99.90
62007;DHT22;47963;53.008;6.754;2022-08-30T15:59:45;23.30;99.90
62007;DHT22;47963;53.008;6.754;2022-08-30T16:02:11;23.30;99.90
62007;DHT22;47963;53.008;6.754;2022-08-30T16:04:36;23.40;99.90
62007;DHT22;47963;53.008;6.754;2022-08-30T16:07:04;23.30;99.90
62007;DHT22;47963;53.008;6.754;2022-08-30T16:09:30;23.50;99.90
62007;DHT22;47963;53.008;6.754;2022-08-30T16:11:56;23.70;99.90
62007;DHT22;47963;53.008;6.754;2022-08-30T16:14:22;23.80;99.90
62007;DHT22;47963;53.008;6.754;2022-08-30T16:16:50;24.20;99.90
62007;DHT22;47963;53.008;6.754;2022-08-30T16:19:16;24.50;99.90
62007;DHT22;47963;53.008;6.754;2022-08-30T16:21:42;24.20;99.90
62007;DHT22;47963;53.008;6.754;2022-08-30T16:24:09;24.70;99.90
62007;DHT22;47963;53.008;6.754;2022-08-30T16:26:36;24.60;99.90
62007;DHT22;47963;53.008;6.754;2022-08-30T16:29:03;24.90;99.90
62007;DHT22;47963;53.008;6.754;2022-08-30T16:31:31;27.10;99.90
62007;DHT22;47963;53.008;6.754;2022-08-30T16:33:57;28.60;99.90
62007;DHT22;47963;53.008;6.754;2022-08-30T16:36:24;29.90;99.90
62007;DHT22;47963;53.008;6.754;2022-08-30T16:38:50;30.40;99.90
62007;DHT22;47963;53.008;6.754;2022-08-30T16:41:16;30.70;99.90
62007;DHT22;47963;53.008;6.754;2022-08-30T16:43:42;30.60;99.90
62007;DHT22;47963;53.008;6.754;2022-08-30T16:46:11;29.40;99.90
62007;DHT22;47963;53.008;6.754;2022-08-30T16:48:37;28.90;99.90
62007;DHT22;47963;53.008;6.754;2022-08-30T16:51:12;29.50;99.90
62007;DHT22;47963;53.008;6.754;2022-08-30T16:53:39;30.20;99.90